Fort Abbas Weather



Fort Abbas's Current Weather

Temprature 13.89o clear sky

clear sky

Rain: 0 %

Min Temprature13.89o
Max Temprature13.89o
Humidity64
Wind Speed4.05 m/h
Sun Rise06:54:11
Sun Set17:11:58
Current Time: 14-Dec-2019 08:14:39
Lat/Lon: 29.19, 72.85




Fort Abbas's Geo Location



Fort Abbas's Weather Forecast

Time Overall Temp Min Temp Max Temp Humidity Wind Speed Rain
14-Dec-2019 (Sat)
11:00:00 clear sky 18.290 18.290 18.290 46 4.56 m/h 0 %
14:00:00 overcast clouds 20.050 20.050 20.050 36 3.44 m/h 0 %
17:00:00 overcast clouds 19.020 19.020 19.020 40 2.04 m/h 0 %
20:00:00 overcast clouds 17.470 17.470 17.470 46 2.83 m/h 0 %
23:00:00 overcast clouds 16.460 16.460 16.460 49 2.1 m/h 0 %
15-Dec-2019 (Sun)
02:00:00 scattered clouds 15.000 15.000 15.000 56 3.1 m/h 0 %
05:00:00 few clouds 13.940 13.940 13.940 61 3.24 m/h 0 %
08:00:00 clear sky 14.350 14.350 14.350 60 2.52 m/h 0 %
11:00:00 clear sky 18.140 18.140 18.140 46 2.76 m/h 0 %
14:00:00 clear sky 19.870 19.870 19.870 35 3.26 m/h 0 %
17:00:00 clear sky 18.850 18.850 18.850 39 2.24 m/h 0 %
20:00:00 clear sky 16.960 16.960 16.960 45 2.31 m/h 0 %
23:00:00 clear sky 15.800 15.800 15.800 48 2.06 m/h 0 %
16-Dec-2019 (Mon)
02:00:00 clear sky 14.560 14.560 14.560 53 1.76 m/h 0 %
05:00:00 clear sky 13.900 13.900 13.900 55 2.13 m/h 0 %
08:00:00 clear sky 14.140 14.140 14.140 55 1.75 m/h 0 %
11:00:00 clear sky 17.840 17.840 17.840 41 1.75 m/h 0 %
14:00:00 clear sky 19.810 19.810 19.810 30 3.76 m/h 0 %
17:00:00 clear sky 18.710 18.710 18.710 31 2.69 m/h 0 %
20:00:00 clear sky 16.410 16.410 16.410 39 1.15 m/h 0 %
23:00:00 clear sky 15.540 15.540 15.540 39 1.8 m/h 0 %
17-Dec-2019 (Tue)
02:00:00 clear sky 14.540 14.540 14.540 41 2.35 m/h 0 %
05:00:00 clear sky 13.220 13.220 13.220 43 3.04 m/h 0 %
08:00:00 clear sky 13.580 13.580 13.580 41 2.38 m/h 0 %
11:00:00 clear sky 17.900 17.900 17.900 29 2.82 m/h 0 %
14:00:00 clear sky 20.260 20.260 20.260 22 4.14 m/h 0 %
17:00:00 clear sky 18.560 18.560 18.560 26 2.51 m/h 0 %
20:00:00 clear sky 16.350 16.350 16.350 31 1.55 m/h 0 %
23:00:00 clear sky 15.550 15.550 15.550 31 2.25 m/h 0 %
18-Dec-2019 (Wed)
02:00:00 clear sky 13.950 13.950 13.950 32 1.85 m/h 0 %
05:00:00 clear sky 13.020 13.020 13.020 34 1.61 m/h 0 %
08:00:00 clear sky 14.100 14.100 14.100 33 1.26 m/h 0 %
11:00:00 clear sky 18.720 18.720 18.720 21 1.13 m/h 0 %
14:00:00 clear sky 20.730 20.730 20.730 16 1.3 m/h 0 %
17:00:00 broken clouds 19.000 19.000 19.000 23 1.07 m/h 0 %
20:00:00 overcast clouds 17.180 17.180 17.180 26 0.88 m/h 0 %
23:00:00 overcast clouds 16.000 16.000 16.000 27 0.71 m/h 0 %
19-Dec-2019 (Thu)
02:00:00 overcast clouds 14.990 14.990 14.990 28 0.61 m/h 0 %
05:00:00 overcast clouds 14.610 14.610 14.610 26 1.45 m/h 0 %
08:00:00 overcast clouds 15.570 15.570 15.570 27 1.58 m/h 0 %

Famous Cities (61)